sensor_id;sensor_type;location;lat;lon;timestamp;pressure;altitude;pressure_sealevel;temperature;humidity
32324;BME280;25666;44.350;9.222;2023-03-13T00:00:55;101792.97;;;8.83;100.00
32324;BME280;25666;44.350;9.222;2023-03-13T00:03:21;101789.25;;;8.87;100.00
32324;BME280;25666;44.350;9.222;2023-03-13T00:05:46;101788.63;;;8.90;100.00
32324;BME280;25666;44.350;9.222;2023-03-13T00:08:12;101797.28;;;8.89;100.00
32324;BME280;25666;44.350;9.222;2023-03-13T00:10:38;101796.94;;;8.90;100.00
32324;BME280;25666;44.350;9.222;2023-03-13T00:13:04;101804.91;;;8.83;100.00
32324;BME280;25666;44.350;9.222;2023-03-13T00:15:30;101810.25;;;8.80;100.00
32324;BME280;25666;44.350;9.222;2023-03-13T00:17:55;101819.28;;;8.85;100.00
32324;BME280;25666;44.350;9.222;2023-03-13T00:20:21;101818.84;;;8.92;100.00
32324;BME280;25666;44.350;9.222;2023-03-13T00:22:46;101815.09;;;8.74;100.00
32324;BME280;25666;44.350;9.222;2023-03-13T00:25:12;101820.63;;;8.74;100.00
32324;BME280;25666;44.350;9.222;2023-03-13T00:27:37;101825.06;;;8.75;100.00
32324;BME280;25666;44.350;9.222;2023-03-13T00:30:03;101828.66;;;8.76;100.00
32324;BME280;25666;44.350;9.222;2023-03-13T00:32:29;101823.19;;;8.84;100.00
32324;BME280;25666;44.350;9.222;2023-03-13T00:34:54;101822.69;;;8.82;100.00
32324;BME280;25666;44.350;9.222;2023-03-13T00:37:20;101825.75;;;8.81;100.00
32324;BME280;25666;44.350;9.222;2023-03-13T00:39:46;101842.53;;;8.76;100.00
32324;BME280;25666;44.350;9.222;2023-03-13T00:42:12;101839.06;;;8.70;100.00
32324;BME280;25666;44.350;9.222;2023-03-13T00:44:37;101829.91;;;8.70;100.00
32324;BME280;25666;44.350;9.222;2023-03-13T00:47:03;101824.34;;;8.70;100.00
32324;BME280;25666;44.350;9.222;2023-03-13T00:49:30;101824.16;;;8.66;100.00
32324;BME280;25666;44.350;9.222;2023-03-13T00:51:55;101822.00;;;8.63;100.00
32324;BME280;25666;44.350;9.222;2023-03-13T00:54:21;101827.34;;;8.59;100.00
32324;BME280;25666;44.350;9.222;2023-03-13T00:56:46;101817.00;;;8.51;100.00
32324;BME280;25666;44.350;9.222;2023-03-13T00:59:13;101825.19;;;8.56;100.00
32324;BME280;25666;44.350;9.222;2023-03-13T01:01:39;101822.00;;;8.49;100.00
32324;BME280;25666;44.350;9.222;2023-03-13T01:04:10;101815.56;;;8.27;100.00
32324;BME280;25666;44.350;9.222;2023-03-13T01:06:38;101807.53;;;8.52;100.00
32324;BME280;25666;44.350;9.222;2023-03-13T01:09:09;101804.72;;;8.66;100.00
32324;BME280;25666;44.350;9.222;2023-03-13T01:11:37;101803.50;;;8.58;100.00
32324;BME280;25666;44.350;9.222;2023-03-13T01:14:05;101807.50;;;8.66;100.00
32324;BME280;25666;44.350;9.222;2023-03-13T01:16:33;101808.59;;;8.79;100.00
32324;BME280;25666;44.350;9.222;2023-03-13T01:19:07;101795.97;;;8.73;100.00
32324;BME280;25666;44.350;9.222;2023-03-13T01:21:33;101805.34;;;8.77;100.00
32324;BME280;25666;44.350;9.222;2023-03-13T01:23:59;101794.78;;;8.87;100.00
32324;BME280;25666;44.350;9.222;2023-03-13T01:26:25;101781.28;;;8.72;100.00
32324;BME280;25666;44.350;9.222;2023-03-13T01:28:52;101781.47;;;8.76;100.00
32324;BME280;25666;44.350;9.222;2023-03-13T01:31:20;101787.28;;;8.88;100.00
32324;BME280;25666;44.350;9.222;2023-03-13T01:33:47;101790.00;;;8.79;100.00
32324;BME280;25666;44.350;9.222;2023-03-13T01:36:14;101788.47;;;8.73;100.00
32324;BME280;25666;44.350;9.222;2023-03-13T01:38:40;101776.53;;;8.86;100.00
32324;BME280;25666;44.350;9.222;2023-03-13T01:41:07;101777.19;;;8.70;100.00
32324;BME280;25666;44.350;9.222;2023-03-13T01:43:35;101784.59;;;8.60;100.00
32324;BME280;25666;44.350;9.222;2023-03-13T01:46:14;101785.09;;;8.63;100.00
32324;BME280;25666;44.350;9.222;2023-03-13T01:49:27;101789.03;;;8.48;100.00
32324;BME280;25666;44.350;9.222;2023-03-13T01:52:18;101784.53;;;8.52;100.00
32324;BME280;25666;44.350;9.222;2023-03-13T01:54:58;101777.91;;;8.61;100.00
32324;BME280;25666;44.350;9.222;2023-03-13T01:57:29;101772.28;;;8.53;100.00
32324;BME280;25666;44.350;9.222;2023-03-13T01:59:59;101767.44;;;8.58;100.00
32324;BME280;25666;44.350;9.222;2023-03-13T02:02:27;101775.31;;;8.65;100.00
32324;BME280;25666;44.350;9.222;2023-03-13T02:04:57;101766.91;;;8.70;100.00
32324;BME280;25666;44.350;9.222;2023-03-13T02:07:32;101766.22;;;8.87;100.00
32324;BME280;25666;44.350;9.222;2023-03-13T02:09:59;101768.88;;;8.92;100.00
32324;BME280;25666;44.350;9.222;2023-03-13T02:12:31;101772.78;;;8.91;100.00
32324;BME280;25666;44.350;9.222;2023-03-13T02:14:58;101774.00;;;8.98;100.00
32324;BME280;25666;44.350;9.222;2023-03-13T02:17:25;101783.22;;;9.07;100.00
32324;BME280;25666;44.350;9.222;2023-03-13T02:19:51;101788.19;;;8.97;100.00
32324;BME280;25666;44.350;9.222;2023-03-13T02:27:53;101809.50;;;9.24;100.00
32324;BME280;25666;44.350;9.222;2023-03-13T02:30:20;101821.66;;;9.14;100.00
32324;BME280;25666;44.350;9.222;2023-03-13T02:32:46;101822.75;;;9.27;100.00
32324;BME280;25666;44.350;9.222;2023-03-13T02:35:14;101825.31;;;9.23;100.00
32324;BME280;25666;44.350;9.222;2023-03-13T02:37:43;101824.91;;;9.30;100.00
32324;BME280;25666;44.350;9.222;2023-03-13T02:40:16;101825.88;;;9.34;100.00
32324;BME280;25666;44.350;9.222;2023-03-13T02:42:44;101820.84;;;9.36;100.00
32324;BME280;25666;44.350;9.222;2023-03-13T02:45:15;101813.38;;;9.45;100.00
32324;BME280;25666;44.350;9.222;2023-03-13T02:47:42;101813.44;;;9.53;100.00
32324;BME280;25666;44.350;9.222;2023-03-13T02:50:09;101804.28;;;9.53;100.00
32324;BME280;25666;44.350;9.222;2023-03-13T02:52:47;101799.06;;;9.51;100.00
32324;BME280;25666;44.350;9.222;2023-03-13T02:55:18;101804.28;;;9.53;100.00
32324;BME280;25666;44.350;9.222;2023-03-13T02:57:47;101798.03;;;9.47;100.00
32324;BME280;25666;44.350;9.222;2023-03-13T03:00:13;101802.22;;;9.36;100.00
32324;BME280;25666;44.350;9.222;2023-03-13T03:02:44;101798.81;;;9.39;100.00
32324;BME280;25666;44.350;9.222;2023-03-13T03:05:11;101802.91;;;9.42;100.00
32324;BME280;25666;44.350;9.222;2023-03-13T03:07:37;101800.31;;;9.45;100.00
32324;BME280;25666;44.350;9.222;2023-03-13T03:10:05;101801.41;;;9.36;100.00
32324;BME280;25666;44.350;9.222;2023-03-13T03:12:30;101807.19;;;9.48;100.00
32324;BME280;25666;44.350;9.222;2023-03-13T03:14:56;101806.72;;;9.46;100.00
32324;BME280;25666;44.350;9.222;2023-03-13T03:17:22;101822.81;;;9.35;100.00
32324;BME280;25666;44.350;9.222;2023-03-13T03:19:47;101817.34;;;9.52;100.00
32324;BME280;25666;44.350;9.222;2023-03-13T03:22:13;101822.47;;;9.37;100.00
32324;BME280;25666;44.350;9.222;2023-03-13T03:24:38;101813.63;;;9.35;100.00
32324;BME280;25666;44.350;9.222;2023-03-13T03:27:04;101815.16;;;9.41;100.00
32324;BME280;25666;44.350;9.222;2023-03-13T03:29:36;101832.25;;;9.56;100.00
32324;BME280;25666;44.350;9.222;2023-03-13T03:32:02;101834.78;;;9.66;100.00
32324;BME280;25666;44.350;9.222;2023-03-13T03:34:28;101825.13;;;9.64;100.00
32324;BME280;25666;44.350;9.222;2023-03-13T03:36:55;101838.25;;;9.72;100.00
32324;BME280;25666;44.350;9.222;2023-03-13T03:39:20;101843.81;;;9.72;100.00
32324;BME280;25666;44.350;9.222;2023-03-13T03:41:46;101849.38;;;9.72;100.00
32324;BME280;25666;44.350;9.222;2023-03-13T03:44:12;101847.56;;;9.67;100.00
32324;BME280;25666;44.350;9.222;2023-03-13T03:46:48;101844.44;;;9.69;100.00
32324;BME280;25666;44.350;9.222;2023-03-13T03:49:13;101843.06;;;9.80;100.00
32324;BME280;25666;44.350;9.222;2023-03-13T03:51:39;101842.88;;;9.77;100.00
32324;BME280;25666;44.350;9.222;2023-03-13T03:54:04;101844.78;;;9.67;100.00
32324;BME280;25666;44.350;9.222;2023-03-13T03:56:31;101855.44;;;9.74;100.00
32324;BME280;25666;44.350;9.222;2023-03-13T03:58:58;101853.59;;;9.69;100.00
32324;BME280;25666;44.350;9.222;2023-03-13T04:01:42;101848.53;;;9.72;100.00
32324;BME280;25666;44.350;9.222;2023-03-13T04:04:08;101847.56;;;9.67;100.00
32324;BME280;25666;44.350;9.222;2023-03-13T04:06:34;101856.00;;;9.62;100.00
32324;BME280;25666;44.350;9.222;2023-03-13T04:09:02;101851.00;;;9.73;100.00
32324;BME280;25666;44.350;9.222;2023-03-13T04:11:29;101840.34;;;9.66;100.00
32324;BME280;25666;44.350;9.222;2023-03-13T04:13:55;101840.97;;;9.63;100.00
32324;BME280;25666;44.350;9.222;2023-03-13T04:16:21;101837.88;;;9.65;100.00
32324;BME280;25666;44.350;9.222;2023-03-13T04:18:47;101837.88;;;9.65;100.00
32324;BME280;25666;44.350;9.222;2023-03-13T04:21:14;101832.38;;;9.74;100.00
32324;BME280;25666;44.350;9.222;2023-03-13T04:23:43;101838.44;;;9.76;100.00
32324;BME280;25666;44.350;9.222;2023-03-13T04:26:10;101836.44;;;9.67;100.00
32324;BME280;25666;44.350;9.222;2023-03-13T04:28:37;101842.28;;;9.66;100.00
32324;BME280;25666;44.350;9.222;2023-03-13T04:31:05;101834.22;;;9.56;100.00
32324;BME280;25666;44.350;9.222;2023-03-13T04:33:39;101826.88;;;9.60;100.00
32324;BME280;25666;44.350;9.222;2023-03-13T04:36:16;101827.91;;;9.64;100.00
32324;BME280;25666;44.350;9.222;2023-03-13T04:39:02;101827.22;;;9.58;100.00
32324;BME280;25666;44.350;9.222;2023-03-13T04:41:48;101832.78;;;9.58;100.00
32324;BME280;25666;44.350;9.222;2023-03-13T04:44:33;101827.97;;;9.50;100.00
32324;BME280;25666;44.350;9.222;2023-03-13T04:47:17;101829.38;;;9.61;100.00
32324;BME280;25666;44.350;9.222;2023-03-13T04:50:01;101846.41;;;9.68;100.00
32324;BME280;25666;44.350;9.222;2023-03-13T04:52:44;101854.25;;;9.44;100.00
32324;BME280;25666;44.350;9.222;2023-03-13T04:55:41;101848.88;;;9.48;100.00
32324;BME280;25666;44.350;9.222;2023-03-13T04:58:25;101839.78;;;9.56;100.00
32324;BME280;25666;44.350;9.222;2023-03-13T05:01:05;101839.38;;;9.71;100.00
32324;BME280;25666;44.350;9.222;2023-03-13T05:03:59;101842.34;;;9.75;100.00
32324;BME280;25666;44.350;9.222;2023-03-13T05:06:54;101837.97;;;9.51;100.00
32324;BME280;25666;44.350;9.222;2023-03-13T05:09:25;101837.50;;;9.58;100.00
32324;BME280;25666;44.350;9.222;2023-03-13T05:12:17;101837.56;;;9.66;100.00
32324;BME280;25666;44.350;9.222;2023-03-13T05:14:56;101834.44;;;9.68;100.00
32324;BME280;25666;44.350;9.222;2023-03-13T05:17:24;101828.88;;;9.68;100.00
32324;BME280;25666;44.350;9.222;2023-03-13T05:20:08;101838.50;;;9.62;100.00
32324;BME280;25666;44.350;9.222;2023-03-13T05:22:55;101836.44;;;9.67;100.00
32324;BME280;25666;44.350;9.222;2023-03-13T05:25:50;101832.84;;;9.67;100.00
32324;BME280;25666;44.350;9.222;2023-03-13T05:28:38;101825.25;;;9.59;100.00
32324;BME280;25666;44.350;9.222;2023-03-13T05:31:30;101828.88;;;9.68;100.00
32324;BME280;25666;44.350;9.222;2023-03-13T05:34:07;101830.25;;;9.48;100.00
32324;BME280;25666;44.350;9.222;2023-03-13T05:36:51;101834.03;;;9.52;100.00
32324;BME280;25666;44.350;9.222;2023-03-13T05:39:45;101833.09;;;9.57;100.00
32324;BME280;25666;44.350;9.222;2023-03-13T05:42:22;101833.38;;;9.55;100.00
32324;BME280;25666;44.350;9.222;2023-03-13T05:45:11;101829.38;;;9.39;100.00
32324;BME280;25666;44.350;9.222;2023-03-13T05:47:59;101836.00;;;9.52;100.00
32324;BME280;25666;44.350;9.222;2023-03-13T05:50:38;101841.38;;;9.48;100.00
32324;BME280;25666;44.350;9.222;2023-03-13T05:53:22;101836.69;;;9.57;100.00
32324;BME280;25666;44.350;9.222;2023-03-13T05:56:09;101828.88;;;9.68;100.00
32324;BME280;25666;44.350;9.222;2023-03-13T05:59:00;101834.72;;;9.80;100.00
32324;BME280;25666;44.350;9.222;2023-03-13T06:01:34;101832.41;;;9.82;100.00
32324;BME280;25666;44.350;9.222;2023-03-13T06:04:08;101832.88;;;9.76;100.00
32324;BME280;25666;44.350;9.222;2023-03-13T06:06:35;101827.53;;;9.88;100.00
32324;BME280;25666;44.350;9.222;2023-03-13T06:09:02;101826.47;;;10.06;100.00
32324;BME280;25666;44.350;9.222;2023-03-13T06:11:30;101825.34;;;10.07;100.00
32324;BME280;25666;44.350;9.222;2023-03-13T06:13:55;101826.81;;;10.04;100.00
32324;BME280;25666;44.350;9.222;2023-03-13T06:16:30;101816.13;;;10.29;100.00
32324;BME280;25666;44.350;9.222;2023-03-13T06:19:10;101830.59;;;10.56;100.00
32324;BME280;25666;44.350;9.222;2023-03-13T06:21:36;101814.63;;;10.96;100.00
32324;BME280;25666;44.350;9.222;2023-03-13T06:24:01;101817.91;;;11.24;100.00
32324;BME280;25666;44.350;9.222;2023-03-13T06:26:27;101823.28;;;11.38;100.00
32324;BME280;25666;44.350;9.222;2023-03-13T06:28:52;101809.34;;;11.38;100.00
32324;BME280;25666;44.350;9.222;2023-03-13T06:31:18;101818.19;;;11.74;100.00
32324;BME280;25666;44.350;9.222;2023-03-13T06:33:43;101824.88;;;11.90;100.00
32324;BME280;25666;44.350;9.222;2023-03-13T06:36:09;101823.38;;;11.84;100.00
32324;BME280;25666;44.350;9.222;2023-03-13T06:38:34;101826.41;;;11.70;100.00
32324;BME280;25666;44.350;9.222;2023-03-13T06:41:00;101838.72;;;11.52;100.00
32324;BME280;25666;44.350;9.222;2023-03-13T06:43:26;101841.47;;;11.61;100.00
32324;BME280;25666;44.350;9.222;2023-03-13T06:45:52;101855.44;;;11.44;100.00
32324;BME280;25666;44.350;9.222;2023-03-13T06:48:19;101857.41;;;11.43;100.00
32324;BME280;25666;44.350;9.222;2023-03-13T06:50:47;101847.25;;;11.39;100.00
32324;BME280;25666;44.350;9.222;2023-03-13T06:53:15;101842.97;;;11.58;100.00
32324;BME280;25666;44.350;9.222;2023-03-13T06:55:41;101841.44;;;11.69;100.00
32324;BME280;25666;44.350;9.222;2023-03-13T06:58:07;101865.09;;;11.80;100.00
32324;BME280;25666;44.350;9.222;2023-03-13T07:00:33;101858.38;;;11.73;100.00
32324;BME280;25666;44.350;9.222;2023-03-13T07:02:58;101863.28;;;11.93;100.00
32324;BME280;25666;44.350;9.222;2023-03-13T07:05:24;101859.66;;;11.84;100.00
32324;BME280;25666;44.350;9.222;2023-03-13T07:07:49;101866.06;;;11.85;100.00
32324;BME280;25666;44.350;9.222;2023-03-13T07:10:15;101876.25;;;11.89;100.00
32324;BME280;25666;44.350;9.222;2023-03-13T07:12:41;101861.81;;;11.87;100.00
32324;BME280;25666;44.350;9.222;2023-03-13T07:15:06;101870.59;;;12.15;100.00
32324;BME280;25666;44.350;9.222;2023-03-13T07:17:32;101873.81;;;12.25;100.00
32324;BME280;25666;44.350;9.222;2023-03-13T07:19:58;101882.28;;;12.46;100.00
32324;BME280;25666;44.350;9.222;2023-03-13T07:22:23;101873.34;;;12.61;100.00
32324;BME280;25666;44.350;9.222;2023-03-13T07:24:48;101873.59;;;12.98;100.00
32324;BME280;25666;44.350;9.222;2023-03-13T07:27:14;101874.53;;;13.10;100.00
32324;BME280;25666;44.350;9.222;2023-03-13T07:29:41;101893.84;;;13.24;100.00
32324;BME280;25666;44.350;9.222;2023-03-13T07:32:07;101893.63;;;13.29;100.00
32324;BME280;25666;44.350;9.222;2023-03-13T07:34:32;101883.88;;;13.35;100.00
32324;BME280;25666;44.350;9.222;2023-03-13T07:36:58;101883.31;;;13.41;100.00
32324;BME280;25666;44.350;9.222;2023-03-13T07:39:23;101887.00;;;13.54;100.00
32324;BME280;25666;44.350;9.222;2023-03-13T07:41:49;101886.63;;;13.76;100.00
32324;BME280;25666;44.350;9.222;2023-03-13T07:44:16;101876.31;;;14.01;100.00
32324;BME280;25666;44.350;9.222;2023-03-13T07:46:41;101880.69;;;14.23;100.00
32324;BME280;25666;44.350;9.222;2023-03-13T07:49:07;101876.44;;;14.37;100.00
32324;BME280;25666;44.350;9.222;2023-03-13T07:51:32;101879.94;;;14.59;100.00
32324;BME280;25666;44.350;9.222;2023-03-13T07:53:57;101883.91;;;14.70;100.00
32324;BME280;25666;44.350;9.222;2023-03-13T07:56:23;101881.22;;;14.85;100.00
32324;BME280;25666;44.350;9.222;2023-03-13T07:58:49;101885.19;;;14.96;100.00
32324;BME280;25666;44.350;9.222;2023-03-13T08:01:17;101889.53;;;14.94;100.00
32324;BME280;25666;44.350;9.222;2023-03-13T08:03:43;101891.50;;;14.81;100.00
32324;BME280;25666;44.350;9.222;2023-03-13T08:06:12;101895.59;;;14.72;100.00
32324;BME280;25666;44.350;9.222;2023-03-13T08:08:38;101903.63;;;14.73;100.00
32324;BME280;25666;44.350;9.222;2023-03-13T08:11:06;101910.41;;;14.60;100.00
32324;BME280;25666;44.350;9.222;2023-03-13T08:13:33;101909.00;;;14.54;100.00
32324;BME280;25666;44.350;9.222;2023-03-13T08:16:10;101902.22;;;14.43;100.00
32324;BME280;25666;44.350;9.222;2023-03-13T08:18:37;101898.16;;;14.40;100.00
32324;BME280;25666;44.350;9.222;2023-03-13T08:21:08;101903.75;;;14.40;100.00
32324;BME280;25666;44.350;9.222;2023-03-13T08:23:34;101905.59;;;14.36;100.00
32324;BME280;25666;44.350;9.222;2023-03-13T08:26:11;101923.09;;;14.33;100.00
32324;BME280;25666;44.350;9.222;2023-03-13T08:28:37;101933.69;;;14.28;100.00
32324;BME280;25666;44.350;9.222;2023-03-13T08:33:33;101943.00;;;14.32;100.00
32324;BME280;25666;44.350;9.222;2023-03-13T08:35:58;101927.88;;;14.33;100.00
32324;BME280;25666;44.350;9.222;2023-03-13T08:38:24;101939.34;;;14.40;100.00
32324;BME280;25666;44.350;9.222;2023-03-13T08:40:55;101927.91;;;14.45;100.00
32324;BME280;25666;44.350;9.222;2023-03-13T08:43:21;101912.88;;;14.62;100.00
32324;BME280;25666;44.350;9.222;2023-03-13T08:45:50;101916.50;;;14.74;100.00
32324;BME280;25666;44.350;9.222;2023-03-13T08:48:18;101910.41;;;14.72;100.00
32324;BME280;25666;44.350;9.222;2023-03-13T08:50:43;101893.25;;;14.74;100.00
32324;BME280;25666;44.350;9.222;2023-03-13T08:53:09;101876.19;;;14.79;100.00
32324;BME280;25666;44.350;9.222;2023-03-13T08:55:34;101890.34;;;14.70;100.00
32324;BME280;25666;44.350;9.222;2023-03-13T08:58:00;101893.50;;;14.69;100.00
32324;BME280;25666;44.350;9.222;2023-03-13T09:00:25;101890.09;;;14.63;100.00
32324;BME280;25666;44.350;9.222;2023-03-13T09:02:51;101901.78;;;14.65;100.00
32324;BME280;25666;44.350;9.222;2023-03-13T09:05:16;101914.59;;;14.66;100.00
32324;BME280;25666;44.350;9.222;2023-03-13T09:07:41;101920.47;;;14.73;100.00
32324;BME280;25666;44.350;9.222;2023-03-13T09:10:07;101920.94;;;14.75;100.00
32324;BME280;25666;44.350;9.222;2023-03-13T09:12:33;101931.53;;;14.70;100.00
32324;BME280;25666;44.350;9.222;2023-03-13T09:14:58;101927.69;;;14.62;100.00
32324;BME280;25666;44.350;9.222;2023-03-13T09:17:24;101929.56;;;14.58;100.00
32324;BME280;25666;44.350;9.222;2023-03-13T09:19:50;101937.00;;;14.54;100.00
32324;BME280;25666;44.350;9.222;2023-03-13T09:22:16;101944.50;;;14.50;100.00
32324;BME280;25666;44.350;9.222;2023-03-13T09:24:41;101938.66;;;14.55;100.00
32324;BME280;25666;44.350;9.222;2023-03-13T09:27:09;101954.31;;;14.56;100.00
32324;BME280;25666;44.350;9.222;2023-03-13T09:29:34;101935.75;;;14.64;100.00
32324;BME280;25666;44.350;9.222;2023-03-13T09:32:04;101941.84;;;14.78;100.00
32324;BME280;25666;44.350;9.222;2023-03-13T09:34:30;101940.44;;;14.84;100.00
32324;BME280;25666;44.350;9.222;2023-03-13T09:36:56;101942.78;;;14.94;100.00
32324;BME280;25666;44.350;9.222;2023-03-13T09:39:21;101954.47;;;14.84;100.00
32324;BME280;25666;44.350;9.222;2023-03-13T09:44:26;101970.66;;;14.66;100.00
32324;BME280;25666;44.350;9.222;2023-03-13T09:51:59;101985.88;;;14.77;100.00
32324;BME280;25666;44.350;9.222;2023-03-13T09:54:33;101979.69;;;14.84;100.00
32324;BME280;25666;44.350;9.222;2023-03-13T09:57:37;101973.59;;;14.82;100.00
32324;BME280;25666;44.350;9.222;2023-03-13T10:00:06;101974.78;;;14.93;100.00
32324;BME280;25666;44.350;9.222;2023-03-13T10:02:37;101978.41;;;15.06;100.00
32324;BME280;25666;44.350;9.222;2023-03-13T10:07:29;101952.81;;;14.83;100.00
32324;BME280;25666;44.350;9.222;2023-03-13T10:09:54;101948.38;;;14.82;100.00
32324;BME280;25666;44.350;9.222;2023-03-13T10:12:23;101964.03;;;14.95;100.00
32324;BME280;25666;44.350;9.222;2023-03-13T10:15:02;101958.53;;;15.11;100.00
32324;BME280;25666;44.350;9.222;2023-03-13T10:17:35;101976.53;;;15.10;100.00
32324;BME280;25666;44.350;9.222;2023-03-13T10:20:28;101982.16;;;15.10;100.00
32324;BME280;25666;44.350;9.222;2023-03-13T10:23:01;101973.03;;;15.13;100.00
32324;BME280;25666;44.350;9.222;2023-03-13T10:25:34;101971.72;;;15.10;100.00
32324;BME280;25666;44.350;9.222;2023-03-13T10:28:00;101969.75;;;14.98;100.00
32324;BME280;25666;44.350;9.222;2023-03-13T10:30:32;101972.69;;;15.02;100.00
32324;BME280;25666;44.350;9.222;2023-03-13T10:35:34;101956.22;;;15.13;100.00
32324;BME280;25666;44.350;9.222;2023-03-13T10:40:36;101950.38;;;15.06;100.00
32324;BME280;25666;44.350;9.222;2023-03-13T10:43:05;101943.25;;;14.96;100.00
32324;BME280;25666;44.350;9.222;2023-03-13T10:45:36;101948.38;;;15.06;100.00
32324;BME280;25666;44.350;9.222;2023-03-13T10:48:14;101950.69;;;15.28;100.00
32324;BME280;25666;44.350;9.222;2023-03-13T10:50:45;101949.03;;;15.39;100.00
32324;BME280;25666;44.350;9.222;2023-03-13T10:53:25;101930.91;;;15.49;100.00
32324;BME280;25666;44.350;9.222;2023-03-13T10:58:34;101929.13;;;15.44;100.00
32324;BME280;25666;44.350;9.222;2023-03-13T11:01:47;101922.16;;;15.78;100.00
32324;BME280;25666;44.350;9.222;2023-03-13T11:04:34;101913.09;;;15.97;100.00
32324;BME280;25666;44.350;9.222;2023-03-13T11:07:19;101908.84;;;16.03;100.00
32324;BME280;25666;44.350;9.222;2023-03-13T11:12:47;101895.34;;;16.24;100.00
32324;BME280;25666;44.350;9.222;2023-03-13T11:15:19;101890.56;;;16.40;100.00
32324;BME280;25666;44.350;9.222;2023-03-13T11:18:28;101898.72;;;16.30;100.00
32324;BME280;25666;44.350;9.222;2023-03-13T11:20:45;101883.53;;;16.62;100.00
32324;BME280;25666;44.350;9.222;2023-03-13T11:28:57;101893.63;;;16.98;100.00
32324;BME280;25666;44.350;9.222;2023-03-13T11:31:46;101893.19;;;16.96;100.00
32324;BME280;25666;44.350;9.222;2023-03-13T11:36:59;101904.34;;;16.92;100.00
32324;BME280;25666;44.350;9.222;2023-03-13T12:01:33;101895.69;;;16.07;100.00
32324;BME280;25666;44.350;9.222;2023-03-13T12:06:29;101891.19;;;16.18;100.00
32324;BME280;25666;44.350;9.222;2023-03-13T12:09:09;101891.91;;;16.15;100.00
32324;BME280;25666;44.350;9.222;2023-03-13T12:11:53;101883.50;;;16.31;100.00
32324;BME280;25666;44.350;9.222;2023-03-13T12:14:30;101876.34;;;16.49;100.00
32324;BME280;25666;44.350;9.222;2023-03-13T12:17:12;101871.88;;;16.17;100.00
32324;BME280;25666;44.350;9.222;2023-03-13T12:20:02;101867.63;;;16.23;100.00
32324;BME280;25666;44.350;9.222;2023-03-13T12:22:39;101859.44;;;16.02;100.00
32324;BME280;25666;44.350;9.222;2023-03-13T12:25:20;101857.59;;;15.78;100.00
32324;BME280;25666;44.350;9.222;2023-03-13T12:27:51;101850.84;;;16.11;100.00
32324;BME280;25666;44.350;9.222;2023-03-13T12:32:58;101830.19;;;16.03;100.00
32324;BME280;25666;44.350;9.222;2023-03-13T12:35:29;101827.72;;;16.01;100.00
32324;BME280;25666;44.350;9.222;2023-03-13T12:41:23;101802.84;;;16.00;100.00
32324;BME280;25666;44.350;9.222;2023-03-13T12:43:52;101803.34;;;15.74;100.00
32324;BME280;25666;44.350;9.222;2023-03-13T12:58:16;101805.78;;;15.76;100.00
32324;BME280;25666;44.350;9.222;2023-03-13T13:00:46;101811.38;;;15.76;100.00
32324;BME280;25666;44.350;9.222;2023-03-13T13:06:17;101806.81;;;15.28;100.00
32324;BME280;25666;44.350;9.222;2023-03-13T13:14:21;101793.22;;;15.02;100.00
32324;BME280;25666;44.350;9.222;2023-03-13T13:16:53;101784.94;;;15.06;100.00
32324;BME280;25666;44.350;9.222;2023-03-13T13:24:54;101781.75;;;15.07;100.00
32324;BME280;25666;44.350;9.222;2023-03-13T13:32:36;101797.25;;;15.17;100.00
32324;BME280;25666;44.350;9.222;2023-03-13T13:37:39;101780.47;;;15.05;100.00
32324;BME280;25666;44.350;9.222;2023-03-13T13:45:24;101778.16;;;15.07;100.00
32324;BME280;25666;44.350;9.222;2023-03-13T13:50:38;101774.69;;;15.25;100.00
32324;BME280;25666;44.350;9.222;2023-03-13T13:55:53;101790.31;;;14.98;100.00
32324;BME280;25666;44.350;9.222;2023-03-13T13:58:24;101775.97;;;14.88;100.00
32324;BME280;25666;44.350;9.222;2023-03-13T14:00:52;101784.97;;;14.93;100.00
32324;BME280;25666;44.350;9.222;2023-03-13T14:05:50;101772.88;;;15.05;100.00
32324;BME280;25666;44.350;9.222;2023-03-13T14:08:20;101760.28;;;14.99;100.00
32324;BME280;25666;44.350;9.222;2023-03-13T14:10:54;101776.47;;;15.18;100.00
32324;BME280;25666;44.350;9.222;2023-03-13T14:13:29;101777.56;;;15.29;100.00
32324;BME280;25666;44.350;9.222;2023-03-13T14:15:54;101772.69;;;15.26;100.00
32324;BME280;25666;44.350;9.222;2023-03-13T14:18:24;101750.09;;;15.34;100.00
32324;BME280;25666;44.350;9.222;2023-03-13T14:20:57;101742.09;;;15.48;100.00
32324;BME280;25666;44.350;9.222;2023-03-13T14:23:36;101744.72;;;15.29;100.00
32324;BME280;25666;44.350;9.222;2023-03-13T14:26:28;101747.44;;;15.26;100.00
32324;BME280;25666;44.350;9.222;2023-03-13T14:28:59;101742.41;;;15.31;100.00
32324;BME280;25666;44.350;9.222;2023-03-13T14:31:35;101735.38;;;15.37;100.00
32324;BME280;25666;44.350;9.222;2023-03-13T14:34:05;101733.16;;;15.31;100.00
32324;BME280;25666;44.350;9.222;2023-03-13T14:36:45;101740.56;;;15.23;100.00
32324;BME280;25666;44.350;9.222;2023-03-13T14:39:20;101731.16;;;15.16;100.00
32324;BME280;25666;44.350;9.222;2023-03-13T14:42:11;101732.47;;;15.06;100.00
32324;BME280;25666;44.350;9.222;2023-03-13T14:44:37;101723.41;;;14.97;100.00
32324;BME280;25666;44.350;9.222;2023-03-13T14:47:23;101719.41;;;14.98;100.00
32324;BME280;25666;44.350;9.222;2023-03-13T14:49:58;101726.53;;;14.95;100.00
32324;BME280;25666;44.350;9.222;2023-03-13T14:52:26;101732.03;;;14.92;100.00
32324;BME280;25666;44.350;9.222;2023-03-13T14:54:57;101722.63;;;14.84;100.00
32324;BME280;25666;44.350;9.222;2023-03-13T14:57:25;101728.84;;;14.78;100.00
32324;BME280;25666;44.350;9.222;2023-03-13T14:59:55;101726.84;;;14.78;100.00